Relevés horaires Oostende (Belgique)


Relevés horaires à Oostende - Vendredi 01 Mai 2026
Heure UTC1 Température [°C] Vent [km/h] Hum. [%] Pres.4 [hPa] Visi. [Km] Nébu. [octa] Préc.5 [mm] Cond.
2m. Res. Ros. Dir.2 Vit. Moy. Raf.3
23:00 11.9 11.9 8.1 SO 3.7 7.4 9.3 78 1020.7(0.1/3h) 20 6/8 -- --
22:00 11.6 11.6 7.4 SSO 1.9 1.9 3.7 75 1020.5(0.2/3h) 22 3/8 -- --
21:00 12.1 12.1 7.2 SE 1.9 7.4 9.3 72 1020.7(0.3/3h) 22 1/8 -- --
20:00 13.4 13.4 7.5 E 1.9 3.7 5.6 67 1020.6(-0.1/3h) 22 1/8 -- --
19:00 14.6 14.6 8.1 NO 3.7 7.4 9.3 65 1020.4(-0.3/3h) 25 1/8 -- --
18:00 15.7 15.7 8.5 ONO 7.4 -- -- 62 1020.4(-0.6/3h) 25 1/8 0/12h
--
17:00 19.4 19.4 9.6 O 7.4 9.3 14.8 53 1020.5(-0.9/3h) 20 0/8 -- --
16:00 24.1 24.1 5.1 SSO 9.3 9.3 13.0 29 1020.6(-1.2/3h) 20 0/8 -- --
15:00 24.5 24.5 5.3 S 7.4 9.3 16.7 29 1021(-1.2/3h) 20 0/8 -- --
14:00 24.0 24.0 3.6 S 7.4 9.3 16.7 26 1021.3(-1.3/3h) 20 0/8 -- --
13:00 23.1 23.1 3.0 SSE 7.4 9.3 14.8 27 1021.8(-1.1/3h) 20 0/8 -- --
12:00 22.3 22.3 2.7 S 9.3 -- -- 28 1022.2(-0.8/3h) 20 0/8 -- --
11:00 21.0 21.0 1.5 SSE 9.3 9.3 14.8 27 1022.6(-0.5/3h) 20 0/8 -- --
10:00 18.8 18.8 0.6 S 9.3 11.1 16.7 29 1022.9(-0.1/3h) 20 0/8 -- --
09:00 17.5 17.5 0.1 SE 9.3 11.1 16.7 31 1023(0.1/3h) 20 0/8 -- --
08:00 15.2 14.7 -0.6 SE 11.1 11.1 14.8 34 1023.1(0.4/3h) 20 0/8 -- --
07:00 12.9 12.2 -0.5 ESE 9.3 9.3 11.1 40 1023.1(0.3/3h) 20 0/8 -- --
06:00 10.5 9.7 -1.1 ESE 7.4 -- -- 44 1023(-0.2/3h) 20 0/8 0/12h
--
05:00 8.6 7.5 -2.3 E 7.4 9.3 11.1 46 1022.7(-0.6/3h) 20 0/8 -- --
04:00 8.7 7.6 -2.7 E 7.4 7.4 9.3 45 1022.8(-0.7/3h) 20 0/8 -- --
03:00 9.0 8 -2.7 E 7.4 9.3 11.1 44 1023.2(-0.3/3h) 20 0/8 -- --
02:00 9.8 9.4 -3.4 E 5.6 9.3 11.1 39 1023.3(0.0/3h) 20 0/8 -- --
01:00 11.1 10.4 -2.8 ESE 7.4 9.3 11.1 38 1023.5(0.0/3h) 20 0/8 -- --
00:00 11.8 10.9 -2.9 ESE 9.3 -- -- 36 1023.4(0.3/3h) 20 0/8 0/6h
0/24h
--

1 Coordinated Universal Time. Actuellement il est 00:00 locale et 22:00 UTC.

2 Le vent souffle depuis la direction indiquée vers la direction oposée.

3 Les rafales max. sont disponible 40 min après l'heure du relevé.

4 Pour les stations d'altitude (plus de 600m) le géopotentiel du niveau le plus proche de la pression obligatoire est indiqué.

5 Les stations disposant d'un diffuseur peuvent indiquer "trace". Cela signifie que des précipitations ont touchés le sol mais que la quantité est inférieure à 0.1 mm.

Récapitulatif de la journée
Température [°C] Vent [km/h] Ensoleillement4 [h] Precipitations totale5 [mm] Pression [Hpa]
Min1 Max.2 Moy.3 Max. Min Max.
8.4 24.8 8.5 16.7 0 h 0 min 0 1020.4 1023.5

1 Température minimale relevée entre 18:00 UTC la veille et 18:00 UTC le jour donné.

2 Température maximale relevée entre 06:00 UTC le jour donné et 06:00 UTC le lendemain.

3 Vent moyen de la journée basé sur les relevés horaires.

4 Ensoleillement en heures relevé entre 06:00 UTC la veille et 06:00 UTC le jour donné.

5 Précipitations totales tombées entre 06:00 UTC la jour donné et 06:00 UTC le lendemain.

Graphiques horaires